Time;durP1;ratioP1;P1;durP2;ratioP2;P2;SDS_P1;SDS_P2;PMS_P1;PMS_P2;Temp;Humidity;BMP_temperature;BMP_pressure;BME280_temperature;BME280_humidity;BME280_pressure;Samples;Min_cycle;Max_cycle;Signal;HPM_P1;HPM_P2
2021/08/27 00:00:50;;;;;;;3.37;1.33;;;14.10;99.90;;;;;;4391185;32;20152;-62
2021/08/27 00:03:17;;;;;;;5.47;1.43;;;14.20;99.90;;;;;;4390758;32;20159;-62
2021/08/27 00:05:44;;;;;;;6.20;1.10;;;14.20;99.90;;;;;;4389781;32;20182;-63
2021/08/27 00:08:11;;;;;;;4.60;1.40;;;14.10;99.90;;;;;;4391397;32;20258;-62
2021/08/27 00:10:37;;;;;;;5.27;1.50;;;14.20;99.90;;;;;;4390078;32;20147;-63
2021/08/27 00:13:04;;;;;;;3.23;1.20;;;14.10;99.90;;;;;;4390754;32;20223;-59
2021/08/27 00:15:31;;;;;;;5.70;1.17;;;14.20;99.90;;;;;;4384504;32;20266;-60
2021/08/27 00:17:59;;;;;;;4.43;1.40;;;14.30;99.90;;;;;;4390969;32;20567;-60
2021/08/27 00:20:29;;;;;;;8.47;1.43;;;14.30;99.90;;;;;;4388397;32;20226;-60
2021/08/27 00:22:56;;;;;;;4.90;1.30;;;14.30;99.90;;;;;;4391443;32;20164;-60
2021/08/27 00:25:23;;;;;;;4.63;1.20;;;14.30;99.90;;;;;;4391529;32;20304;-60
2021/08/27 00:27:49;;;;;;;15.70;2.60;;;14.30;99.90;;;;;;4390920;32;20152;-61
2021/08/27 00:30:16;;;;;;;5.03;1.30;;;14.30;99.90;;;;;;4390458;32;20174;-61
2021/08/27 00:32:43;;;;;;;8.37;1.70;;;14.30;99.90;;;;;;4390569;32;20174;-63
2021/08/27 00:35:11;;;;;;;7.80;1.63;;;14.30;99.90;;;;;;4390525;32;20156;-61
2021/08/27 00:37:38;;;;;;;4.13;1.30;;;14.20;99.90;;;;;;4390611;32;20180;-64
2021/08/27 00:40:06;;;;;;;4.50;1.10;;;14.10;99.90;;;;;;4390077;32;20152;-63
2021/08/27 00:42:35;;;;;;;5.87;1.20;;;14.00;99.90;;;;;;4385884;32;20483;-62
2021/08/27 00:45:01;;;;;;;9.43;1.47;;;14.00;99.90;;;;;;4390160;32;20227;-62
2021/08/27 00:47:28;;;;;;;3.80;1.30;;;13.90;99.90;;;;;;4389975;32;20561;-60
2021/08/27 00:49:55;;;;;;;11.90;1.93;;;13.70;99.90;;;;;;4390256;32;20159;-63
2021/08/27 00:52:24;;;;;;;6.97;1.70;;;13.80;99.90;;;;;;4391228;32;20580;-62
2021/08/27 00:54:54;;;;;;;4.37;1.57;;;13.70;99.90;;;;;;4389683;32;20469;-61
2021/08/27 00:57:21;;;;;;;8.10;1.60;;;13.60;99.90;;;;;;4382550;32;20273;-62
2021/08/27 00:59:48;;;;;;;4.53;1.07;;;13.60;99.90;;;;;;4380395;32;20536;-62
2021/08/27 01:02:16;;;;;;;3.10;1.13;;;13.60;99.90;;;;;;4389981;32;20163;-62
2021/08/27 01:04:45;;;;;;;5.30;1.20;;;13.60;99.90;;;;;;4389793;32;20178;-61
2021/08/27 01:07:16;;;;;;;4.30;1.13;;;13.60;99.90;;;;;;4389211;32;20210;-61
2021/08/27 01:09:53;;;;;;;10.47;1.57;;;13.60;99.90;;;;;;4389899;32;20167;-61
2021/08/27 01:12:27;;;;;;;9.30;1.30;;;13.60;99.90;;;;;;4390883;32;20227;-62
2021/08/27 01:15:01;;;;;;;2.77;1.00;;;13.50;99.90;;;;;;4389286;32;20231;-62
2021/08/27 01:17:32;;;;;;;6.23;1.37;;;13.50;99.90;;;;;;4378003;32;20185;-61
2021/08/27 01:20:37;;;;;;;7.17;1.40;;;13.50;99.90;;;;;;4389625;32;20211;-60
2021/08/27 01:23:22;;;;;;;6.13;1.57;;;13.50;99.90;;;;;;4389916;32;20168;-61
2021/08/27 01:25:58;;;;;;;5.27;1.30;;;13.50;99.90;;;;;;4376319;32;20154;-60
2021/08/27 01:28:26;;;;;;;7.70;1.67;;;13.50;99.90;;;;;;4390883;32;20149;-61
2021/08/27 01:31:15;;;;;;;5.93;1.30;;;13.40;99.90;;;;;;4378948;32;20172;-61
2021/08/27 01:33:58;;;;;;;5.27;1.40;;;13.40;99.90;;;;;;4373841;32;20562;-62
2021/08/27 01:36:29;;;;;;;9.80;2.60;;;13.30;99.90;;;;;;4379932;32;20464;-62
2021/08/27 01:38:57;;;;;;;3.30;1.30;;;13.30;99.90;;;;;;4376489;32;20187;-62
2021/08/27 01:41:27;;;;;;;7.70;1.40;;;13.30;99.90;;;;;;4381794;32;20154;-62
2021/08/27 01:43:55;;;;;;;3.17;1.10;;;13.30;99.90;;;;;;4380043;32;20227;-63
2021/08/27 01:46:22;;;;;;;9.63;1.83;;;13.30;99.90;;;;;;4371213;32;20200;-62
2021/08/27 01:48:50;;;;;;;6.70;2.47;;;13.30;99.90;;;;;;4387618;32;20236;-61
2021/08/27 01:51:17;;;;;;;9.07;1.30;;;13.30;99.90;;;;;;4389674;32;20233;-62
2021/08/27 01:53:46;;;;;;;5.50;1.40;;;13.30;99.90;;;;;;4390189;32;20149;-62
2021/08/27 01:56:15;;;;;;;14.43;1.63;;;13.30;99.90;;;;;;4388989;32;20227;-62
2021/08/27 01:58:42;;;;;;;7.77;2.27;;;13.20;99.90;;;;;;4385677;32;20223;-62
2021/08/27 02:01:10;;;;;;;3.67;1.00;;;13.20;99.90;;;;;;4389998;32;20163;-62
2021/08/27 02:03:37;;;;;;;4.97;1.70;;;13.20;99.90;;;;;;4338576;32;1699074;-63
2021/08/27 02:06:04;;;;;;;11.90;2.10;;;13.20;99.90;;;;;;4388793;32;20172;-61
2021/08/27 02:08:33;;;;;;;5.27;1.30;;;13.10;99.90;;;;;;4393152;32;20137;-62
2021/08/27 02:11:02;;;;;;;7.77;1.67;;;13.10;99.90;;;;;;4393044;32;20163;-62
2021/08/27 02:13:30;;;;;;;9.27;1.60;;;13.10;99.90;;;;;;4377839;32;20163;-63
2021/08/27 02:15:57;;;;;;;5.00;1.60;;;13.20;99.90;;;;;;4383910;32;20205;-62
2021/08/27 02:18:24;;;;;;;7.40;1.50;;;13.20;99.90;;;;;;4392511;32;20222;-63
2021/08/27 02:20:53;;;;;;;3.97;1.30;;;13.30;99.90;;;;;;4392356;32;20218;-62
2021/08/27 02:23:23;;;;;;;7.40;1.23;;;13.30;99.90;;;;;;4391179;32;20155;-62
2021/08/27 02:25:53;;;;;;;5.00;1.83;;;13.20;99.90;;;;;;4392718;32;20162;-63
2021/08/27 02:28:24;;;;;;;5.80;1.50;;;13.20;99.90;;;;;;4391929;32;20166;-62
2021/08/27 02:30:52;;;;;;;3.43;1.37;;;13.20;99.90;;;;;;4392564;32;20602;-63
2021/08/27 02:33:20;;;;;;;7.10;1.63;;;13.20;99.90;;;;;;4391865;32;20152;-62
2021/08/27 02:35:49;;;;;;;4.90;1.33;;;13.20;99.90;;;;;;4392479;32;20622;-63
2021/08/27 02:38:18;;;;;;;4.27;1.43;;;13.30;99.90;;;;;;4390408;32;20166;-62
2021/08/27 02:40:45;;;;;;;10.23;1.90;;;13.40;99.90;;;;;;4391693;32;20166;-62
2021/08/27 02:43:13;;;;;;;6.97;1.67;;;13.60;99.90;;;;;;4391518;32;20528;-63
2021/08/27 02:45:42;;;;;;;8.93;2.03;;;13.60;99.90;;;;;;4392889;32;20163;-61
2021/08/27 02:48:09;;;;;;;5.73;1.53;;;13.70;99.90;;;;;;4392104;32;20235;-62
2021/08/27 02:50:40;;;;;;;4.37;1.10;;;13.60;99.90;;;;;;4397030;32;20568;-62
2021/08/27 02:53:10;;;;;;;4.87;1.30;;;13.70;99.90;;;;;;4392124;32;20174;-62
2021/08/27 02:55:44;;;;;;;4.73;1.13;;;13.70;99.90;;;;;;4390750;32;20176;-61
2021/08/27 02:58:16;;;;;;;7.83;2.23;;;13.70;99.90;;;;;;4385557;32;20484;-63
2021/08/27 03:00:53;;;;;;;6.70;1.57;;;13.70;99.90;;;;;;4392398;32;20208;-61
2021/08/27 03:03:22;;;;;;;8.83;2.03;;;13.80;99.90;;;;;;4392685;32;20213;-61
2021/08/27 03:05:52;;;;;;;2.93;1.67;;;13.90;99.90;;;;;;4390862;32;20176;-61
2021/08/27 03:08:21;;;;;;;5.17;1.70;;;13.90;99.90;;;;;;4391720;32;20168;-61
2021/08/27 03:10:53;;;;;;;4.47;1.40;;;13.90;99.90;;;;;;4391481;32;20159;-63
2021/08/27 03:13:26;;;;;;;5.30;1.77;;;13.70;99.90;;;;;;4390867;32;20231;-62
2021/08/27 03:16:00;;;;;;;8.90;1.37;;;13.70;99.90;;;;;;4392084;32;20619;-63
2021/08/27 03:18:39;;;;;;;5.23;1.67;;;13.70;99.90;;;;;;4390906;32;20152;-61
2021/08/27 03:21:12;;;;;;;4.70;1.10;;;13.60;99.90;;;;;;4391027;32;20158;-61
2021/08/27 03:23:41;;;;;;;6.00;1.30;;;13.50;99.90;;;;;;4391360;32;20166;-61
2021/08/27 03:26:14;;;;;;;7.47;1.50;;;13.50;99.90;;;;;;4391669;32;20617;-62
2021/08/27 03:28:48;;;;;;;7.57;1.47;;;13.50;99.90;;;;;;4391393;32;20164;-62
2021/08/27 03:31:17;;;;;;;7.03;1.47;;;13.40;99.90;;;;;;4390750;32;20156;-61
2021/08/27 03:33:44;;;;;;;5.73;1.47;;;13.40;99.90;;;;;;4389480;32;20195;-60
2021/08/27 03:36:11;;;;;;;12.27;1.40;;;13.60;99.90;;;;;;4391492;32;20152;-62
2021/08/27 03:38:38;;;;;;;3.03;1.53;;;13.70;99.90;;;;;;4381653;32;20149;-61
2021/08/27 03:41:06;;;;;;;7.03;1.50;;;13.80;99.90;;;;;;4386176;32;20160;-62
2021/08/27 03:43:34;;;;;;;8.90;1.77;;;13.90;99.90;;;;;;4381928;32;20229;-62
2021/08/27 03:46:01;;;;;;;2.87;1.03;;;14.00;99.90;;;;;;4387182;32;20158;-62
2021/08/27 03:48:31;;;;;;;6.90;1.30;;;14.00;99.90;;;;;;4390455;32;20544;-62
2021/08/27 03:51:01;;;;;;;5.00;1.37;;;14.10;99.90;;;;;;4390507;32;20227;-62
2021/08/27 03:53:28;;;;;;;5.70;1.90;;;14.00;99.90;;;;;;4391781;32;20159;-61
2021/08/27 03:55:57;;;;;;;8.97;1.70;;;14.00;99.90;;;;;;4391327;32;20160;-61
2021/08/27 03:58:24;;;;;;;4.87;1.50;;;13.90;99.90;;;;;;4392866;32;20160;-62
2021/08/27 04:00:52;;;;;;;5.13;1.20;;;13.90;99.90;;;;;;4392557;32;20171;-63
2021/08/27 04:03:20;;;;;;;2.80;1.73;;;13.80;99.90;;;;;;4391152;32;20148;-61
2021/08/27 04:06:02;;;;;;;4.73;1.40;;;13.80;99.90;;;;;;4391006;32;20575;-61
2021/08/27 04:08:30;;;;;;;8.77;1.47;;;13.70;99.90;;;;;;4390944;32;20174;-62
2021/08/27 04:10:57;;;;;;;9.10;1.20;;;13.70;99.90;;;;;;4390633;32;20219;-62
2021/08/27 04:13:24;;;;;;;6.57;1.93;;;13.80;99.90;;;;;;4391400;32;20271;-61
2021/08/27 04:15:50;;;;;;;6.00;1.37;;;13.80;99.90;;;;;;4391452;32;20228;-61
2021/08/27 04:18:17;;;;;;;7.60;1.40;;;13.80;99.90;;;;;;4391477;32;20219;-61
2021/08/27 04:20:44;;;;;;;6.70;1.67;;;13.70;99.90;;;;;;4390567;32;20160;-62
2021/08/27 04:23:13;;;;;;;8.60;1.50;;;13.80;99.90;;;;;;4390526;32;20163;-62
2021/08/27 04:25:40;;;;;;;3.10;0.90;;;13.80;99.90;;;;;;4392174;32;20220;-62
2021/08/27 04:28:07;;;;;;;8.10;2.43;;;13.80;99.90;;;;;;4390115;32;20224;-62
2021/08/27 04:30:34;;;;;;;4.73;1.20;;;13.70;99.90;;;;;;4389772;32;20273;-61
2021/08/27 04:33:02;;;;;;;8.17;1.77;;;13.70;99.90;;;;;;4392305;32;20532;-62
2021/08/27 04:35:29;;;;;;;2.03;1.17;;;13.70;99.90;;;;;;4390283;32;20507;-63
2021/08/27 04:37:56;;;;;;;8.33;1.10;;;13.60;99.90;;;;;;4389843;32;20148;-62
2021/08/27 04:40:24;;;;;;;4.43;1.27;;;13.60;99.90;;;;;;4390420;32;20164;-62
2021/08/27 04:42:51;;;;;;;1.77;0.87;;;13.50;99.90;;;;;;4389726;32;20169;-62
2021/08/27 04:45:19;;;;;;;7.90;2.77;;;13.60;99.90;;;;;;4383844;32;20152;-62
2021/08/27 04:47:46;;;;;;;3.83;1.73;;;13.60;99.90;;;;;;4391052;32;20181;-63
2021/08/27 04:50:14;;;;;;;4.57;1.20;;;13.70;99.90;;;;;;4391411;32;20533;-62
2021/08/27 04:52:41;;;;;;;8.03;1.30;;;13.70;99.90;;;;;;4391228;32;20215;-62
2021/08/27 04:55:09;;;;;;;7.17;2.17;;;13.80;99.90;;;;;;4390196;32;20167;-63
2021/08/27 04:57:41;;;;;;;5.73;1.40;;;13.90;99.90;;;;;;4391057;32;20194;-63
2021/08/27 05:00:10;;;;;;;5.73;1.77;;;13.90;99.90;;;;;;4390053;32;20488;-63
2021/08/27 05:02:37;;;;;;;3.83;1.10;;;13.90;99.90;;;;;;4389914;32;20156;-62
2021/08/27 05:05:05;;;;;;;5.13;1.80;;;14.00;99.90;;;;;;4390657;32;20240;-62
2021/08/27 05:07:32;;;;;;;4.57;1.17;;;14.00;99.90;;;;;;4389424;32;20476;-63
2021/08/27 05:09:59;;;;;;;2.70;1.23;;;14.00;99.90;;;;;;4391303;32;20221;-63
2021/08/27 05:12:26;;;;;;;8.70;1.50;;;14.00;99.90;;;;;;4388235;32;20190;-62
2021/08/27 05:14:54;;;;;;;4.57;1.20;;;13.90;99.90;;;;;;4390777;32;20506;-62
2021/08/27 05:17:21;;;;;;;7.50;2.07;;;13.90;99.90;;;;;;4389578;32;20219;-63
2021/08/27 05:19:47;;;;;;;5.10;1.90;;;13.90;99.90;;;;;;4391725;32;20144;-63
2021/08/27 05:22:14;;;;;;;2.90;1.20;;;13.90;99.90;;;;;;4389642;32;20149;-62
2021/08/27 05:24:41;;;;;;;7.67;1.83;;;14.00;99.90;;;;;;4392620;32;20136;-64
2021/08/27 05:27:08;;;;;;;11.67;1.90;;;14.00;99.90;;;;;;4391817;32;20158;-62
2021/08/27 05:29:35;;;;;;;6.73;1.17;;;14.10;99.90;;;;;;4388752;32;20250;-62
2021/08/27 05:32:03;;;;;;;6.30;1.40;;;14.20;99.90;;;;;;4391249;32;20228;-59
2021/08/27 05:34:30;;;;;;;7.17;1.77;;;14.30;99.90;;;;;;4390576;32;20233;-62
2021/08/27 05:36:57;;;;;;;3.33;1.00;;;14.30;99.90;;;;;;4389621;32;20175;-64
2021/08/27 05:39:27;;;;;;;4.53;1.20;;;14.40;99.90;;;;;;4390116;32;20230;-59
2021/08/27 05:41:54;;;;;;;3.57;1.13;;;14.60;99.90;;;;;;4389490;32;20172;-62
2021/08/27 05:44:21;;;;;;;4.83;1.50;;;14.50;99.90;;;;;;4393930;32;20178;-60
2021/08/27 05:46:48;;;;;;;6.90;1.50;;;14.60;99.90;;;;;;4388587;32;20653;-62
2021/08/27 05:49:17;;;;;;;3.87;1.10;;;14.70;99.90;;;;;;4391338;32;20231;-63
2021/08/27 05:51:44;;;;;;;7.27;1.73;;;14.70;99.90;;;;;;4392110;32;20144;-60
2021/08/27 05:54:11;;;;;;;3.50;1.33;;;14.60;99.90;;;;;;4388029;32;20227;-62
2021/08/27 05:56:37;;;;;;;6.60;1.33;;;14.70;99.90;;;;;;4386530;32;20702;-62
2021/08/27 05:59:04;;;;;;;4.43;1.00;;;14.60;99.90;;;;;;4393415;32;20202;-63
2021/08/27 06:01:31;;;;;;;8.17;1.60;;;14.80;99.90;;;;;;4391939;32;20223;-60
2021/08/27 06:03:58;;;;;;;4.20;1.40;;;14.90;99.90;;;;;;4389286;32;20561;-60
2021/08/27 06:06:27;;;;;;;5.30;1.00;;;15.00;99.90;;;;;;4377953;32;20172;-60
2021/08/27 06:08:54;;;;;;;8.10;1.17;;;15.10;99.90;;;;;;4384903;32;20257;-60
2021/08/27 06:11:21;;;;;;;7.27;1.67;;;15.10;99.90;;;;;;4390300;32;20144;-60
2021/08/27 06:13:48;;;;;;;7.10;1.50;;;15.20;99.90;;;;;;4386904;32;20481;-60
2021/08/27 06:16:15;;;;;;;4.40;1.37;;;15.20;99.90;;;;;;4392795;32;20164;-61
2021/08/27 06:18:42;;;;;;;6.73;1.50;;;15.40;99.90;;;;;;4389934;32;20160;-61
2021/08/27 06:21:09;;;;;;;2.47;0.90;;;15.50;99.90;;;;;;4390407;32;20644;-61
2021/08/27 06:23:37;;;;;;;6.07;1.30;;;15.60;99.90;;;;;;4382796;32;20215;-61
2021/08/27 06:26:03;;;;;;;2.80;1.40;;;15.50;99.90;;;;;;4388893;32;20186;-62
2021/08/27 06:28:30;;;;;;;7.30;1.20;;;15.50;99.90;;;;;;4392077;32;21027;-61
2021/08/27 06:30:57;;;;;;;4.63;1.17;;;15.30;99.90;;;;;;4389016;32;20190;-61
2021/08/27 06:33:24;;;;;;;4.30;1.40;;;15.20;99.90;;;;;;4387274;32;20267;-61
2021/08/27 06:35:51;;;;;;;5.80;1.53;;;15.20;99.90;;;;;;4391494;32;20563;-61
2021/08/27 06:38:22;;;;;;;6.07;1.30;;;15.10;99.90;;;;;;4386888;32;20467;-62
2021/08/27 06:40:53;;;;;;;3.67;1.30;;;15.20;99.90;;;;;;4393206;32;20167;-60
2021/08/27 06:43:22;;;;;;;3.13;1.50;;;15.20;99.90;;;;;;4393764;32;20175;-62
2021/08/27 06:45:49;;;;;;;6.43;1.30;;;15.20;99.90;;;;;;4391081;32;20159;-62
2021/08/27 06:48:16;;;;;;;2.27;1.20;;;15.30;99.90;;;;;;4390494;32;20238;-61
2021/08/27 06:50:43;;;;;;;15.27;2.43;;;15.40;99.90;;;;;;4392039;32;20618;-62
2021/08/27 06:53:09;;;;;;;7.50;1.00;;;15.40;99.90;;;;;;4390829;32;20215;-61
2021/08/27 06:55:37;;;;;;;3.70;0.97;;;15.50;99.90;;;;;;4390723;32;20178;-61
2021/08/27 06:58:05;;;;;;;3.97;1.27;;;15.40;99.90;;;;;;4388861;32;20222;-62
2021/08/27 07:00:33;;;;;;;4.90;1.03;;;15.50;99.90;;;;;;4389526;32;20615;-62
2021/08/27 07:03:00;;;;;;;8.57;1.83;;;15.60;99.90;;;;;;4390705;32;20168;-62
2021/08/27 07:05:27;;;;;;;6.30;1.50;;;15.60;99.90;;;;;;4389508;32;20172;-62
2021/08/27 07:07:54;;;;;;;7.80;1.17;;;15.60;99.90;;;;;;4381335;32;20203;-62
2021/08/27 07:10:21;;;;;;;4.60;1.27;;;15.60;99.90;;;;;;4382671;32;20227;-62
2021/08/27 07:12:49;;;;;;;3.90;1.20;;;15.60;99.90;;;;;;4383388;32;20136;-61
2021/08/27 07:15:25;;;;;;;4.77;1.03;;;15.50;99.90;;;;;;4385072;32;20225;-62
2021/08/27 07:17:53;;;;;;;8.00;1.50;;;15.60;99.90;;;;;;4380281;32;20217;-60
2021/08/27 07:20:22;;;;;;;9.80;2.37;;;15.50;99.90;;;;;;4384916;32;20167;-61
2021/08/27 07:22:49;;;;;;;6.27;1.50;;;15.50;99.90;;;;;;4388830;32;20140;-61
2021/08/27 07:25:16;;;;;;;6.03;1.67;;;15.60;99.90;;;;;;4391158;32;20148;-63
2021/08/27 07:27:44;;;;;;;5.27;1.27;;;15.70;99.90;;;;;;4389478;32;20144;-63
2021/08/27 07:30:12;;;;;;;6.63;1.23;;;15.80;99.90;;;;;;4385491;32;20226;-60
2021/08/27 07:32:40;;;;;;;4.17;1.33;;;16.00;99.90;;;;;;4383904;32;20211;-60
2021/08/27 07:35:08;;;;;;;6.33;1.73;;;16.10;99.90;;;;;;4389458;32;20170;-61
2021/08/27 07:37:38;;;;;;;6.30;1.60;;;16.30;99.90;;;;;;4385942;32;20209;-60
2021/08/27 07:40:06;;;;;;;7.63;1.80;;;16.50;99.90;;;;;;4391213;32;20140;-60
2021/08/27 07:42:33;;;;;;;7.73;1.47;;;17.10;99.90;;;;;;4391475;32;20156;-59
2021/08/27 07:45:00;;;;;;;9.17;2.03;;;18.20;99.90;;;;;;4390572;32;20449;-59
2021/08/27 07:47:27;;;;;;;3.83;1.30;;;20.00;99.90;;;;;;4391477;32;20163;-61
2021/08/27 07:49:55;;;;;;;8.10;2.20;;;22.40;99.90;;;;;;4392510;32;20167;-60
2021/08/27 07:52:22;;;;;;;6.70;1.93;;;23.20;99.60;;;;;;4392842;32;20166;-61
2021/08/27 07:54:49;;;;;;;6.97;1.60;;;21.80;99.90;;;;;;4391628;32;20447;-61
2021/08/27 07:57:16;;;;;;;4.30;1.53;;;21.80;99.90;;;;;;4391234;32;20182;-61
2021/08/27 07:59:43;;;;;;;5.43;1.40;;;21.60;99.90;;;;;;4391012;32;20622;-60
2021/08/27 08:02:09;;;;;;;3.80;1.20;;;20.70;99.90;;;;;;4380830;32;20167;-60
2021/08/27 08:04:36;;;;;;;5.30;1.50;;;21.50;99.90;;;;;;4374836;32;20159;-64
2021/08/27 08:07:05;;;;;;;6.60;1.43;;;24.90;96.60;;;;;;4378187;32;20174;-60
2021/08/27 08:09:32;;;;;;;4.17;1.70;;;25.80;93.10;;;;;;4364890;32;20168;-59
2021/08/27 08:11:59;;;;;;;6.37;1.40;;;27.00;91.80;;;;;;4381769;32;20180;-62
2021/08/27 08:14:34;;;;;;;3.03;1.13;;;26.50;91.50;;;;;;4374798;32;20621;-62
2021/08/27 08:17:11;;;;;;;7.00;1.40;;;28.40;87.70;;;;;;4370908;32;20152;-63
2021/08/27 08:19:40;;;;;;;5.40;2.20;;;28.90;84.50;;;;;;4366340;32;20934;-63
2021/08/27 08:22:14;;;;;;;4.18;1.35;;;34.80;70.10;;;;;;4380735;32;20141;-62
2021/08/27 08:24:40;;;;;;;6.18;1.70;;;34.70;61.70;;;;;;4390464;32;20164;-61
2021/08/27 08:27:07;;;;;;;6.70;1.98;;;33.30;59.70;;;;;;4389617;32;20602;-64
2021/08/27 08:29:34;;;;;;;5.35;2.10;;;29.90;63.50;;;;;;4397308;32;20166;-63
2021/08/27 08:32:01;;;;;;;5.93;1.87;;;25.50;73.30;;;;;;4394842;32;20152;-62
2021/08/27 08:34:29;;;;;;;5.27;1.53;;;23.10;85.50;;;;;;4390026;32;20163;-62
2021/08/27 08:36:55;;;;;;;7.03;1.93;;;21.50;92.70;;;;;;4390785;32;20155;-60
2021/08/27 08:39:24;;;;;;;6.30;2.10;;;19.90;98.90;;;;;;4392303;32;20152;-60
2021/08/27 08:41:51;;;;;;;6.53;2.30;;;19.10;99.90;;;;;;4390755;32;20162;-61
2021/08/27 08:44:18;;;;;;;7.27;2.80;;;18.60;99.90;;;;;;4391496;32;20174;-61
2021/08/27 08:46:47;;;;;;;6.03;2.20;;;17.60;99.90;;;;;;4390618;32;20174;-60
2021/08/27 08:49:15;;;;;;;9.30;2.70;;;16.60;99.90;;;;;;4390810;32;20148;-61
2021/08/27 08:51:45;;;;;;;10.23;2.57;;;16.10;99.90;;;;;;4390622;32;20207;-61
2021/08/27 08:54:13;;;;;;;6.53;2.23;;;16.20;99.90;;;;;;4390820;32;20159;-61
2021/08/27 08:56:43;;;;;;;6.37;2.20;;;16.00;99.90;;;;;;4390449;32;20148;-62
2021/08/27 08:59:11;;;;;;;4.43;1.97;;;16.00;99.90;;;;;;4390206;32;20233;-62
2021/08/27 09:01:37;;;;;;;9.13;2.10;;;16.20;99.90;;;;;;4391742;32;20238;-63
2021/08/27 09:04:05;;;;;;;4.83;1.60;;;16.40;99.90;;;;;;4390123;32;20171;-61
2021/08/27 09:06:33;;;;;;;10.83;1.87;;;16.80;99.90;;;;;;4390016;32;20187;-62
2021/08/27 09:09:01;;;;;;;6.03;1.70;;;17.70;99.90;;;;;;4390747;32;20500;-63
2021/08/27 09:11:29;;;;;;;5.13;2.40;;;19.40;99.90;;;;;;4384007;32;20170;-62
2021/08/27 09:13:59;;;;;;;2.87;1.33;;;20.70;99.90;;;;;;4391662;32;20198;-62
2021/08/27 09:16:28;;;;;;;5.30;1.40;;;21.50;99.90;;;;;;4389950;32;20182;-62
2021/08/27 09:18:55;;;;;;;6.10;1.90;;;21.80;99.90;;;;;;4390515;32;20159;-61
2021/08/27 09:21:30;;;;;;;5.80;1.70;;;21.20;99.90;;;;;;4390291;32;20152;-62
2021/08/27 09:24:14;;;;;;;8.47;2.17;;;21.20;99.90;;;;;;4390408;32;20162;-62
2021/08/27 09:26:42;;;;;;;5.60;2.03;;;21.70;99.90;;;;;;4378479;32;20226;-62
2021/08/27 09:29:12;;;;;;;8.70;2.27;;;21.20;99.90;;;;;;4391127;32;20190;-62
2021/08/27 09:31:41;;;;;;;10.10;2.20;;;21.20;99.90;;;;;;4389822;32;20231;-62
2021/08/27 09:34:08;;;;;;;7.93;1.40;;;20.90;99.90;;;;;;4390225;32;20616;-63
2021/08/27 09:36:36;;;;;;;2.77;1.40;;;20.60;99.90;;;;;;4389820;32;20426;-62
2021/08/27 09:39:06;;;;;;;5.80;2.00;;;20.30;99.90;;;;;;4390432;32;20159;-61
2021/08/27 09:41:34;;;;;;;6.37;1.60;;;19.40;99.90;;;;;;4391167;32;20496;-61
2021/08/27 09:44:01;;;;;;;6.07;2.27;;;19.40;99.90;;;;;;4390727;32;20167;-63
2021/08/27 09:46:34;;;;;;;11.13;2.40;;;19.20;99.90;;;;;;4391491;32;20483;-61
2021/08/27 09:49:02;;;;;;;4.77;1.83;;;18.90;99.90;;;;;;4390180;32;20174;-62
2021/08/27 09:51:43;;;;;;;9.10;1.97;;;18.90;99.90;;;;;;4390552;32;20149;-61
2021/08/27 09:54:10;;;;;;;6.73;2.03;;;18.90;99.90;;;;;;4390031;32;20167;-62
2021/08/27 09:56:47;;;;;;;5.07;1.90;;;19.30;99.90;;;;;;4379165;32;20179;-61
2021/08/27 09:59:14;;;;;;;8.87;2.27;;;20.00;99.90;;;;;;4384244;32;20145;-62
2021/08/27 10:01:50;;;;;;;8.20;2.50;;;20.20;99.90;;;;;;4384954;32;20163;-61
2021/08/27 10:04:17;;;;;;;8.57;1.80;;;20.90;99.90;;;;;;4390754;32;20167;-61
2021/08/27 10:06:45;;;;;;;4.30;1.40;;;20.70;99.90;;;;;;4389522;32;20165;-62
2021/08/27 10:09:12;;;;;;;4.53;1.80;;;21.00;99.90;;;;;;4391726;32;20572;-61
2021/08/27 10:11:39;;;;;;;5.93;1.87;;;20.70;99.90;;;;;;4390840;32;20149;-61
2021/08/27 10:14:06;;;;;;;5.43;2.20;;;20.00;99.90;;;;;;4389958;32;20148;-63
2021/08/27 10:16:33;;;;;;;4.57;2.03;;;20.10;99.90;;;;;;4389805;32;20445;-62
2021/08/27 10:19:02;;;;;;;4.27;1.83;;;20.00;99.90;;;;;;4388732;32;20552;-62
2021/08/27 10:21:30;;;;;;;8.70;2.50;;;20.30;99.90;;;;;;4391501;32;20148;-62
2021/08/27 10:23:57;;;;;;;6.90;2.33;;;20.70;99.90;;;;;;4389737;32;20188;-61
2021/08/27 10:26:25;;;;;;;6.33;2.30;;;21.00;99.90;;;;;;4391134;32;20182;-61
2021/08/27 10:28:53;;;;;;;5.77;2.10;;;20.80;99.90;;;;;;4391920;32;20227;-61
2021/08/27 10:31:41;;;;;;;5.83;1.67;;;20.30;99.90;;;;;;4392091;32;20652;-62
2021/08/27 10:34:09;;;;;;;9.57;2.30;;;19.00;99.90;;;;;;4391945;32;20148;-61
2021/08/27 10:36:50;;;;;;;7.43;2.40;;;18.70;99.90;;;;;;4394327;32;20168;-61
2021/08/27 10:39:38;;;;;;;6.33;1.90;;;18.00;99.90;;;;;;4400478;32;20162;-61
2021/08/27 10:42:06;;;;;;;9.40;2.50;;;17.10;99.90;;;;;;4391860;32;20166;-62
2021/08/27 10:44:50;;;;;;;10.43;2.33;;;16.70;99.90;;;;;;4392290;32;20182;-62
2021/08/27 10:47:17;;;;;;;9.83;1.93;;;16.80;99.90;;;;;;4392216;32;20274;-62
2021/08/27 10:49:59;;;;;;;8.53;1.83;;;16.90;99.90;;;;;;4392270;32;20174;-62
2021/08/27 10:52:32;;;;;;;6.40;2.00;;;16.60;99.90;;;;;;4391477;32;20186;-61
2021/08/27 10:55:17;;;;;;;2.77;1.53;;;16.70;99.90;;;;;;4392269;32;20186;-61
2021/08/27 10:58:06;;;;;;;4.73;2.03;;;17.30;99.90;;;;;;4392124;32;20163;-62
2021/08/27 11:00:39;;;;;;;6.40;2.30;;;18.20;99.90;;;;;;4391982;32;20164;-62
2021/08/27 11:05:36;;;;;;;2.87;1.10;;;18.80;99.90;;;;;;4405069;32;20174;-62
2021/08/27 11:08:05;;;;;;;3.63;1.57;;;17.90;99.90;;;;;;4407042;32;20178;-62
2021/08/27 11:10:33;;;;;;;4.73;1.40;;;16.80;99.90;;;;;;4407112;32;20673;-62
2021/08/27 11:13:01;;;;;;;3.73;0.93;;;16.30;99.90;;;;;;4407179;32;20584;-63
2021/08/27 11:15:31;;;;;;;2.90;1.13;;;16.30;99.90;;;;;;4406807;32;20179;-62
2021/08/27 11:18:21;;;;;;;5.47;1.37;;;16.30;99.90;;;;;;4408148;32;20143;-63
2021/08/27 11:20:50;;;;;;;7.27;1.13;;;16.20;99.90;;;;;;4395667;32;20184;-61
2021/08/27 11:23:18;;;;;;;4.03;1.13;;;16.20;99.90;;;;;;4406627;32;20163;-62
2021/08/27 11:26:00;;;;;;;5.77;1.00;;;16.10;99.90;;;;;;4406113;32;20178;-63
2021/08/27 11:28:28;;;;;;;6.73;1.40;;;16.10;99.90;;;;;;4407520;32;20580;-62
2021/08/27 11:31:06;;;;;;;6.37;2.33;;;16.20;99.90;;;;;;4406711;32;20515;-63
2021/08/27 11:33:55;;;;;;;7.93;1.80;;;16.30;99.90;;;;;;4408003;32;20167;-61
2021/08/27 11:36:24;;;;;;;11.47;2.20;;;16.70;99.90;;;;;;4344235;33;20157;-60
2021/08/27 11:38:56;;;;;;;5.03;2.10;;;17.20;99.90;;;;;;4344369;33;20267;-61
2021/08/27 11:41:24;;;;;;;9.27;2.33;;;17.30;99.90;;;;;;4344633;33;20161;-62
2021/08/27 11:44:07;;;;;;;6.30;2.07;;;17.40;99.90;;;;;;4343234;33;20240;-61
2021/08/27 11:46:36;;;;;;;7.70;2.30;;;17.50;99.90;;;;;;4344349;33;20567;-62
2021/08/27 11:49:16;;;;;;;8.97;1.47;;;17.50;99.90;;;;;;4344593;33;20152;-61
2021/08/27 11:52:02;;;;;;;6.57;1.47;;;17.60;99.90;;;;;;4344465;33;20272;-62
2021/08/27 11:54:29;;;;;;;18.67;2.13;;;17.80;99.90;;;;;;4335789;33;20675;-60
2021/08/27 11:56:56;;;;;;;6.77;1.73;;;18.00;99.90;;;;;;4344399;33;20233;-61
2021/08/27 11:59:25;;;;;;;9.50;1.40;;;18.10;99.90;;;;;;4343385;33;20248;-60
2021/08/27 12:01:52;;;;;;;7.23;2.27;;;18.40;99.90;;;;;;4344165;33;20172;-61
2021/08/27 12:04:28;;;;;;;8.37;1.80;;;18.40;99.90;;;;;;4344848;33;20180;-61
2021/08/27 12:07:06;;;;;;;13.63;1.90;;;18.40;99.90;;;;;;4344354;33;20160;-61
2021/08/27 12:09:34;;;;;;;4.17;2.00;;;18.20;99.90;;;;;;4344254;33;20144;-62
2021/08/27 12:12:01;;;;;;;8.57;2.13;;;18.30;99.90;;;;;;4343891;33;20225;-61
2021/08/27 12:14:50;;;;;;;6.67;2.03;;;18.80;99.90;;;;;;4402912;32;20530;-61
2021/08/27 12:17:25;;;;;;;7.93;2.67;;;19.20;99.90;;;;;;4405829;32;20174;-62
2021/08/27 12:19:53;;;;;;;9.40;2.10;;;19.50;99.90;;;;;;4405650;32;20166;-60
2021/08/27 12:22:24;;;;;;;9.07;2.00;;;19.20;99.90;;;;;;4405917;32;20166;-60
2021/08/27 12:24:53;;;;;;;4.70;1.97;;;19.00;99.90;;;;;;4406129;32;20148;-61
2021/08/27 12:27:20;;;;;;;5.90;1.80;;;18.60;99.90;;;;;;4406151;32;20625;-61
2021/08/27 12:30:03;;;;;;;9.77;2.53;;;18.60;99.90;;;;;;4406064;32;20159;-61
2021/08/27 12:32:30;;;;;;;7.20;2.03;;;19.20;99.90;;;;;;4406446;32;20163;-61
2021/08/27 12:34:57;;;;;;;10.77;2.73;;;19.90;99.90;;;;;;4398791;32;20166;-61
2021/08/27 12:37:25;;;;;;;10.63;2.57;;;20.20;99.90;;;;;;4405682;32;20174;-61
2021/08/27 12:39:52;;;;;;;8.33;2.30;;;20.10;99.90;;;;;;4404792;32;20635;-60
2021/08/27 12:42:20;;;;;;;6.70;2.10;;;19.80;99.90;;;;;;4405471;32;20227;-62
2021/08/27 12:45:01;;;;;;;11.57;2.60;;;19.40;99.90;;;;;;4407117;32;20207;-61
2021/08/27 12:47:34;;;;;;;9.73;2.73;;;19.20;99.90;;;;;;4412686;32;20143;-61
2021/08/27 12:50:05;;;;;;;10.00;2.30;;;19.40;99.90;;;;;;4405002;32;20159;-61
2021/08/27 12:52:34;;;;;;;11.57;2.80;;;19.70;99.90;;;;;;4404777;32;20286;-62
2021/08/27 12:55:00;;;;;;;6.63;2.93;;;19.30;99.90;;;;;;4406310;32;20148;-61
2021/08/27 12:57:29;;;;;;;7.10;2.13;;;19.20;99.90;;;;;;4405827;32;20167;-62
2021/08/27 12:59:59;;;;;;;7.10;1.80;;;19.30;99.90;;;;;;4405842;32;20154;-62